Time;durP1;ratioP1;P1;durP2;ratioP2;P2;SDS_P1;SDS_P2;PMS_P1;PMS_P2;Temp;Humidity;BMP_temperature;BMP_pressure;BME280_temperature;BME280_humidity;BME280_pressure;Samples;Min_cycle;Max_cycle;Signal;HPM_P1;HPM_P2
2023/04/28 00:02:25;;;;;;;12.03;8.90;;;;;;;;;;5231289;28;20048;-72
2023/04/28 00:04:57;;;;;;;15.80;10.23;;;;;;;;;;5216593;28;20022;-72
2023/04/28 00:07:28;;;;;;;13.83;9.37;;;;;;;;;;5229983;28;20025;-72
2023/04/28 00:09:59;;;;;;;13.00;10.00;;;;;;;;;;5230071;28;20052;-72
2023/04/28 00:12:31;;;;;;;12.77;9.97;;;;;;;;;;5231457;28;20022;-72
2023/04/28 00:15:02;;;;;;;13.77;9.80;;;;;;;;;;5231281;28;20052;-73
2023/04/28 00:17:34;;;;;;;12.20;10.17;;;;;;;;;;5215527;28;20025;-73
2023/04/28 00:20:05;;;;;;;12.27;10.63;;;;;;;;;;5232070;28;20021;-73
2023/04/28 00:22:38;;;;;;;14.83;10.80;;;;;;;;;;5231055;28;20049;-74
2023/04/28 00:25:09;;;;;;;13.67;10.70;;;;;;;;;;5231098;27;20117;-75
2023/04/28 00:27:40;;;;;;;15.33;10.97;;;;;;;;;;5231343;28;20108;-74
2023/04/28 00:30:12;;;;;;;14.93;11.00;;;;;;;;;;5232523;28;20813;-74
2023/04/28 00:32:43;;;;;;;12.47;11.17;;;;;;;;;;5233011;28;20049;-73
2023/04/28 00:35:15;;;;;;;13.83;10.73;;;;;;;;;;5319944;27;20455;-74
2023/04/28 00:37:46;;;;;;;15.40;12.63;;;;;;;;;;5233310;28;20025;-74
2023/04/28 00:40:31;;;;;;;12.57;11.23;;;;;;;;;;5294552;27;20091;-73
2023/04/28 00:43:02;;;;;;;14.85;13.15;;;;;;;;;;5275774;27;20057;-74
2023/04/28 00:45:34;;;;;;;17.87;13.10;;;;;;;;;;5366261;27;20042;-74
2023/04/28 00:48:05;;;;;;;15.13;12.00;;;;;;;;;;5314259;27;20116;-74
2023/04/28 00:50:36;;;;;;;14.50;11.90;;;;;;;;;;5256415;28;20006;-74
2023/04/28 00:53:07;;;;;;;15.77;12.20;;;;;;;;;;5255163;28;20010;-74
2023/04/28 00:55:38;;;;;;;16.33;13.07;;;;;;;;;;5235125;27;20013;-74
2023/04/28 00:58:10;;;;;;;15.70;12.40;;;;;;;;;;5229538;28;20029;-74
2023/04/28 01:00:41;;;;;;;17.70;12.13;;;;;;;;;;5229893;27;20116;-74
2023/04/28 01:03:13;;;;;;;15.90;12.20;;;;;;;;;;5229625;28;20453;-74
2023/04/28 01:05:44;;;;;;;12.87;11.13;;;;;;;;;;5229610;28;20449;-75
2023/04/28 01:08:17;;;;;;;15.67;12.50;;;;;;;;;;5230594;28;20642;-74
2023/04/28 01:10:48;;;;;;;13.80;12.37;;;;;;;;;;5230962;28;20070;-74
2023/04/28 01:13:19;;;;;;;14.43;12.23;;;;;;;;;;5230188;28;20373;-74
2023/04/28 01:15:51;;;;;;;15.67;12.30;;;;;;;;;;5229463;28;20086;-74
2023/04/28 01:18:22;;;;;;;15.27;11.67;;;;;;;;;;5230134;27;20037;-74
2023/04/28 01:20:54;;;;;;;14.63;12.13;;;;;;;;;;5244540;28;20059;-74
2023/04/28 01:23:25;;;;;;;15.47;12.43;;;;;;;;;;5231630;28;20016;-74
2023/04/28 01:25:57;;;;;;;16.20;11.83;;;;;;;;;;5230063;28;20092;-74
2023/04/28 01:28:28;;;;;;;16.33;13.27;;;;;;;;;;5230229;28;20150;-74
2023/04/28 01:30:59;;;;;;;17.07;13.57;;;;;;;;;;5230472;28;20061;-74
2023/04/28 01:33:30;;;;;;;17.97;13.53;;;;;;;;;;5230015;28;20040;-74
2023/04/28 01:36:02;;;;;;;16.53;13.33;;;;;;;;;;5229357;28;20021;-74
2023/04/28 01:38:33;;;;;;;14.40;12.37;;;;;;;;;;5229007;28;20025;-74
2023/04/28 01:41:04;;;;;;;17.17;12.70;;;;;;;;;;5230150;28;20440;-75
2023/04/28 01:43:35;;;;;;;14.93;12.53;;;;;;;;;;5314286;28;20029;-75
2023/04/28 01:46:06;;;;;;;14.97;12.43;;;;;;;;;;5229891;28;20021;-75
2023/04/28 01:48:37;;;;;;;20.57;13.40;;;;;;;;;;5230262;28;20106;-75
2023/04/28 01:51:09;;;;;;;17.67;13.20;;;;;;;;;;5230721;28;20006;-75
2023/04/28 01:53:40;;;;;;;21.30;11.70;;;;;;;;;;5225416;28;20021;-75
2023/04/28 01:56:11;;;;;;;19.37;13.20;;;;;;;;;;5208731;28;20469;-75
2023/04/28 01:58:43;;;;;;;18.70;13.57;;;;;;;;;;5223000;28;20045;-75
2023/04/28 02:01:14;;;;;;;14.93;13.10;;;;;;;;;;5226597;28;20872;-75
2023/04/28 02:03:47;;;;;;;18.30;13.10;;;;;;;;;;5215573;28;20010;-75
2023/04/28 02:06:18;;;;;;;17.98;14.60;;;;;;;;;;5228415;28;20026;-75
2023/04/28 02:08:50;;;;;;;18.47;13.83;;;;;;;;;;5228538;28;20033;-75
2023/04/28 02:11:21;;;;;;;17.13;13.53;;;;;;;;;;5230027;28;20678;-75
2023/04/28 02:13:52;;;;;;;16.43;14.63;;;;;;;;;;5229772;28;20026;-75
2023/04/28 02:16:23;;;;;;;16.37;14.07;;;;;;;;;;5217389;28;20589;-75
2023/04/28 02:18:54;;;;;;;17.17;13.90;;;;;;;;;;5224755;28;20085;-75
2023/04/28 02:21:26;;;;;;;18.13;14.80;;;;;;;;;;5227304;28;20062;-75
2023/04/28 02:23:58;;;;;;;17.40;13.90;;;;;;;;;;5229578;28;20024;-76
2023/04/28 02:26:30;;;;;;;18.63;13.53;;;;;;;;;;5228875;28;20036;-75
2023/04/28 02:29:03;;;;;;;17.43;13.53;;;;;;;;;;5229656;28;20021;-75
2023/04/28 02:31:34;;;;;;;17.63;13.90;;;;;;;;;;5209030;28;20110;-74
2023/04/28 02:34:05;;;;;;;18.23;14.17;;;;;;;;;;5216372;28;20112;-75
2023/04/28 02:36:37;;;;;;;16.10;14.03;;;;;;;;;;5228467;28;20089;-75
2023/04/28 02:39:09;;;;;;;16.83;14.73;;;;;;;;;;5228989;28;20120;-75
2023/04/28 02:41:40;;;;;;;20.70;15.07;;;;;;;;;;5224426;28;20093;-75
2023/04/28 02:44:11;;;;;;;19.47;14.53;;;;;;;;;;5208460;28;20047;-75
2023/04/28 02:46:42;;;;;;;16.83;13.70;;;;;;;;;;5222203;28;20473;-75
2023/04/28 02:49:13;;;;;;;18.90;14.77;;;;;;;;;;5230527;28;20025;-74
2023/04/28 02:51:45;;;;;;;18.77;15.57;;;;;;;;;;5232584;28;20026;-75
2023/04/28 02:54:25;;;;;;;21.03;16.07;;;;;;;;;;5232172;27;20702;-75
2023/04/28 02:56:57;;;;;;;20.67;15.03;;;;;;;;;;5232658;28;20030;-75
2023/04/28 02:59:28;;;;;;;17.97;15.10;;;;;;;;;;5232340;28;20022;-74
2023/04/28 03:02:00;;;;;;;19.23;15.13;;;;;;;;;;5232916;28;20098;-74
2023/04/28 03:04:31;;;;;;;21.67;14.40;;;;;;;;;;5232681;28;20025;-74
2023/04/28 03:07:02;;;;;;;20.80;14.37;;;;;;;;;;5231711;28;20464;-74
2023/04/28 03:09:33;;;;;;;19.50;15.40;;;;;;;;;;5232414;27;20062;-75
2023/04/28 03:12:05;;;;;;;25.10;15.60;;;;;;;;;;5232191;28;20025;-75
2023/04/28 03:14:36;;;;;;;18.07;14.03;;;;;;;;;;5232435;28;20035;-74
2023/04/28 03:17:07;;;;;;;18.10;14.33;;;;;;;;;;5232393;28;20033;-74
2023/04/28 03:19:38;;;;;;;18.93;14.83;;;;;;;;;;5232265;28;20024;-75
2023/04/28 03:22:10;;;;;;;18.43;14.20;;;;;;;;;;5231289;28;20021;-75
2023/04/28 03:24:41;;;;;;;22.63;15.80;;;;;;;;;;5231891;27;20061;-75
2023/04/28 03:27:12;;;;;;;21.00;15.00;;;;;;;;;;5231905;28;20120;-74
2023/04/28 03:29:43;;;;;;;19.47;14.90;;;;;;;;;;5231498;28;20461;-74
2023/04/28 03:32:14;;;;;;;20.27;15.43;;;;;;;;;;5241457;28;20433;-75
2023/04/28 03:34:46;;;;;;;20.83;15.77;;;;;;;;;;5238757;28;20017;-74
2023/04/28 03:37:17;;;;;;;21.73;15.60;;;;;;;;;;5230846;28;20107;-74
2023/04/28 03:39:49;;;;;;;20.53;14.77;;;;;;;;;;5231996;28;20100;-75
2023/04/28 03:42:21;;;;;;;20.07;15.03;;;;;;;;;;5231719;28;20367;-75
2023/04/28 03:44:52;;;;;;;20.50;15.67;;;;;;;;;;5232196;28;20029;-75
2023/04/28 03:47:23;;;;;;;19.13;15.27;;;;;;;;;;5230283;27;20078;-74
2023/04/28 03:49:54;;;;;;;19.00;16.00;;;;;;;;;;5231109;28;20021;-74
2023/04/28 03:52:26;;;;;;;19.17;16.10;;;;;;;;;;5230479;28;20023;-75
2023/04/28 03:54:57;;;;;;;22.50;16.53;;;;;;;;;;5231949;28;20025;-75
2023/04/28 03:57:28;;;;;;;20.53;15.50;;;;;;;;;;5231639;27;20433;-74
2023/04/28 03:59:59;;;;;;;19.07;16.00;;;;;;;;;;5231573;28;20071;-74
2023/04/28 04:02:30;;;;;;;17.80;15.70;;;;;;;;;;5231060;28;20018;-74
2023/04/28 04:05:02;;;;;;;21.53;15.47;;;;;;;;;;5231995;28;20047;-74
2023/04/28 04:07:33;;;;;;;17.43;14.93;;;;;;;;;;5214126;28;20026;-75
2023/04/28 04:10:04;;;;;;;18.70;14.97;;;;;;;;;;5231998;28;20030;-75
2023/04/28 04:12:36;;;;;;;17.80;14.93;;;;;;;;;;5231211;28;20040;-75
2023/04/28 04:15:07;;;;;;;21.97;15.87;;;;;;;;;;5231726;28;20021;-74
2023/04/28 04:17:39;;;;;;;20.27;15.23;;;;;;;;;;5231558;28;20100;-74
2023/04/28 04:20:10;;;;;;;21.47;16.23;;;;;;;;;;5230369;28;20021;-75
2023/04/28 04:22:41;;;;;;;19.10;15.50;;;;;;;;;;5231839;27;20118;-75
2023/04/28 04:25:12;;;;;;;18.73;15.93;;;;;;;;;;5231501;28;20013;-75
2023/04/28 04:27:43;;;;;;;16.07;14.30;;;;;;;;;;5231240;28;20028;-75
2023/04/28 04:30:15;;;;;;;19.67;15.57;;;;;;;;;;5231570;28;20131;-74
2023/04/28 04:32:46;;;;;;;22.37;16.57;;;;;;;;;;5229847;28;20084;-74
2023/04/28 04:35:17;;;;;;;23.80;15.50;;;;;;;;;;5246906;28;20013;-75
2023/04/28 04:37:48;;;;;;;17.60;14.90;;;;;;;;;;5231692;28;20477;-75
2023/04/28 04:40:19;;;;;;;20.27;15.33;;;;;;;;;;5229725;28;20030;-75
2023/04/28 04:42:50;;;;;;;23.77;17.00;;;;;;;;;;5231580;28;20066;-75
2023/04/28 04:45:22;;;;;;;22.13;16.10;;;;;;;;;;5230334;28;20053;-74
2023/04/28 04:47:53;;;;;;;21.37;15.80;;;;;;;;;;5231360;28;20109;-75
2023/04/28 04:50:25;;;;;;;20.40;15.93;;;;;;;;;;5230177;27;20033;-75
2023/04/28 04:52:57;;;;;;;19.60;15.83;;;;;;;;;;5231262;27;20021;-74
2023/04/28 04:55:28;;;;;;;20.80;15.47;;;;;;;;;;5231550;28;20473;-75
2023/04/28 04:57:59;;;;;;;20.87;15.83;;;;;;;;;;5230144;28;20029;-74
2023/04/28 05:00:31;;;;;;;22.40;16.07;;;;;;;;;;5231070;28;20022;-75
2023/04/28 05:03:02;;;;;;;22.70;15.83;;;;;;;;;;5229863;28;20028;-75
2023/04/28 05:05:34;;;;;;;18.23;15.63;;;;;;;;;;5227889;28;20021;-74
2023/04/28 05:08:05;;;;;;;20.77;17.50;;;;;;;;;;5231012;28;20113;-75
2023/04/28 05:10:36;;;;;;;21.20;15.40;;;;;;;;;;5231240;28;20017;-75
2023/04/28 05:13:08;;;;;;;21.60;16.50;;;;;;;;;;5214459;28;20111;-76
2023/04/28 05:15:39;;;;;;;21.20;15.03;;;;;;;;;;5230172;28;20021;-75
2023/04/28 05:18:12;;;;;;;20.73;14.80;;;;;;;;;;5230934;28;20510;-76
2023/04/28 05:20:43;;;;;;;20.27;15.40;;;;;;;;;;5231223;28;20102;-75
2023/04/28 05:23:15;;;;;;;21.50;15.60;;;;;;;;;;5215839;28;20548;-75
2023/04/28 05:25:46;;;;;;;22.97;16.27;;;;;;;;;;5232609;28;20059;-75
2023/04/28 05:28:18;;;;;;;20.53;16.37;;;;;;;;;;5233944;28;20021;-75
2023/04/28 05:30:49;;;;;;;23.20;16.97;;;;;;;;;;5235282;28;20021;-75
2023/04/28 05:33:22;;;;;;;20.10;15.70;;;;;;;;;;5234338;28;20052;-76
2023/04/28 05:36:03;;;;;;;21.00;16.13;;;;;;;;;;5242732;28;20081;-75
2023/04/28 05:38:35;;;;;;;20.87;14.43;;;;;;;;;;5317229;27;20014;-75
2023/04/28 05:41:08;;;;;;;19.10;15.57;;;;;;;;;;5360261;27;20019;-75
2023/04/28 05:43:40;;;;;;;22.40;15.43;;;;;;;;;;5335797;27;20445;-76
2023/04/28 05:46:12;;;;;;;17.73;14.27;;;;;;;;;;5249839;28;20030;-75
2023/04/28 05:48:44;;;;;;;18.03;14.50;;;;;;;;;;5249233;28;20048;-75
2023/04/28 05:51:15;;;;;;;22.10;16.20;;;;;;;;;;5231395;28;20083;-75
2023/04/28 05:53:47;;;;;;;20.23;15.43;;;;;;;;;;5229979;28;20061;-75
2023/04/28 05:56:19;;;;;;;20.83;16.07;;;;;;;;;;5230398;28;20026;-75
2023/04/28 05:58:50;;;;;;;23.63;16.13;;;;;;;;;;5230206;28;20022;-74
2023/04/28 06:01:21;;;;;;;18.83;15.37;;;;;;;;;;5228808;28;20018;-76
2023/04/28 06:03:55;;;;;;;18.03;15.40;;;;;;;;;;5230299;28;20028;-76
2023/04/28 06:06:26;;;;;;;22.27;15.07;;;;;;;;;;5287304;28;20026;-76
2023/04/28 06:08:57;;;;;;;16.93;14.17;;;;;;;;;;5332391;27;20025;-76
2023/04/28 06:11:29;;;;;;;19.43;14.73;;;;;;;;;;5229792;28;20022;-76
2023/04/28 06:14:01;;;;;;;18.73;15.43;;;;;;;;;;5230123;28;20071;-75
2023/04/28 06:16:32;;;;;;;18.97;14.83;;;;;;;;;;5230015;28;20113;-75
2023/04/28 06:19:03;;;;;;;18.63;14.20;;;;;;;;;;5229567;28;20129;-75
2023/04/28 06:21:35;;;;;;;21.93;15.90;;;;;;;;;;5229038;28;20025;-75
2023/04/28 06:24:07;;;;;;;20.07;14.60;;;;;;;;;;5230712;28;20014;-75
2023/04/28 06:26:39;;;;;;;18.03;14.70;;;;;;;;;;5232996;28;20021;-76
2023/04/28 06:29:10;;;;;;;14.77;13.27;;;;;;;;;;5233224;28;20492;-76
2023/04/28 06:31:41;;;;;;;17.33;12.93;;;;;;;;;;5231618;28;20046;-76
2023/04/28 06:34:12;;;;;;;17.00;13.93;;;;;;;;;;5233085;28;20503;-75
2023/04/28 06:36:44;;;;;;;20.97;13.67;;;;;;;;;;5231189;28;20041;-75
2023/04/28 06:39:15;;;;;;;18.30;13.63;;;;;;;;;;5232491;28;20052;-75
2023/04/28 06:41:46;;;;;;;16.33;12.57;;;;;;;;;;5233403;28;20026;-75
2023/04/28 06:44:17;;;;;;;14.83;12.70;;;;;;;;;;5232793;28;20053;-76
2023/04/28 06:46:48;;;;;;;16.57;12.63;;;;;;;;;;5231330;28;20498;-75
2023/04/28 06:49:20;;;;;;;17.43;13.27;;;;;;;;;;5231601;28;20029;-75
2023/04/28 06:51:51;;;;;;;17.10;12.13;;;;;;;;;;5232045;28;20669;-75
2023/04/28 06:54:22;;;;;;;15.37;11.80;;;;;;;;;;5228122;28;20095;-74
2023/04/28 06:56:53;;;;;;;18.97;13.07;;;;;;;;;;5211271;28;20044;-74
2023/04/28 06:59:25;;;;;;;16.30;12.97;;;;;;;;;;5211769;28;20516;-75
2023/04/28 07:01:57;;;;;;;19.23;13.93;;;;;;;;;;5212591;28;20029;-75
2023/04/28 07:04:29;;;;;;;22.70;13.93;;;;;;;;;;5221068;28;20392;-75
2023/04/28 07:07:00;;;;;;;24.33;14.17;;;;;;;;;;5231482;28;20075;-75
2023/04/28 07:09:31;;;;;;;17.97;12.93;;;;;;;;;;5231426;28;20029;-75
2023/04/28 07:12:03;;;;;;;17.33;12.33;;;;;;;;;;5232552;28;20074;-75
2023/04/28 07:14:34;;;;;;;19.17;13.33;;;;;;;;;;5232261;28;20025;-75
2023/04/28 07:17:05;;;;;;;17.30;13.67;;;;;;;;;;5231542;28;20104;-75
2023/04/28 07:19:36;;;;;;;16.67;12.77;;;;;;;;;;5232090;28;20033;-75
2023/04/28 07:22:08;;;;;;;17.57;13.50;;;;;;;;;;5231683;28;20035;-75
2023/04/28 07:24:39;;;;;;;15.30;12.50;;;;;;;;;;5232471;28;20068;-75
2023/04/28 07:27:10;;;;;;;16.67;12.67;;;;;;;;;;5231633;28;20101;-75
2023/04/28 07:29:41;;;;;;;13.43;12.03;;;;;;;;;;5232431;28;20100;-75
2023/04/28 07:32:12;;;;;;;14.53;11.80;;;;;;;;;;5231661;28;20043;-75
2023/04/28 07:34:44;;;;;;;14.27;11.33;;;;;;;;;;5231767;28;20021;-75
2023/04/28 07:37:15;;;;;;;15.07;12.17;;;;;;;;;;5231186;28;20013;-75
2023/04/28 07:39:46;;;;;;;15.60;12.40;;;;;;;;;;5232240;28;20025;-75
2023/04/28 07:42:18;;;;;;;13.83;11.40;;;;;;;;;;5231840;28;20013;-74
2023/04/28 07:44:49;;;;;;;13.20;10.90;;;;;;;;;;5232234;28;20376;-74
2023/04/28 07:47:20;;;;;;;14.53;11.10;;;;;;;;;;5223936;28;20020;-76
2023/04/28 07:49:51;;;;;;;15.77;11.93;;;;;;;;;;5210815;28;20018;-75
2023/04/28 07:52:22;;;;;;;13.93;11.90;;;;;;;;;;5209394;28;20022;-75
2023/04/28 07:54:54;;;;;;;11.40;10.20;;;;;;;;;;5211606;28;20022;-75
2023/04/28 07:57:25;;;;;;;14.83;11.57;;;;;;;;;;5210774;28;20037;-75
2023/04/28 07:59:56;;;;;;;14.37;12.13;;;;;;;;;;5211550;28;20026;-76
2023/04/28 08:02:27;;;;;;;14.97;12.10;;;;;;;;;;5211009;28;20086;-75
2023/04/28 08:04:59;;;;;;;15.13;12.50;;;;;;;;;;5222489;28;20150;-74
2023/04/28 08:07:30;;;;;;;14.30;12.73;;;;;;;;;;5230001;28;20471;-74
2023/04/28 08:10:03;;;;;;;16.73;13.63;;;;;;;;;;5231643;28;20032;-74
2023/04/28 08:12:34;;;;;;;17.30;13.53;;;;;;;;;;5230750;28;20029;-74
2023/04/28 08:15:05;;;;;;;14.30;12.73;;;;;;;;;;5222421;28;20042;-77
2023/04/28 08:17:37;;;;;;;16.10;14.40;;;;;;;;;;5210456;28;20057;-75
2023/04/28 08:20:08;;;;;;;16.73;14.33;;;;;;;;;;5210214;28;20101;-75
2023/04/28 08:22:40;;;;;;;15.90;14.30;;;;;;;;;;5210862;28;20653;-74
2023/04/28 08:25:11;;;;;;;16.30;14.57;;;;;;;;;;5224983;28;20350;-75
2023/04/28 08:27:42;;;;;;;16.17;14.17;;;;;;;;;;5226970;28;20052;-75
2023/04/28 08:30:13;;;;;;;15.80;13.67;;;;;;;;;;5226596;28;20030;-75
2023/04/28 08:32:45;;;;;;;15.33;13.67;;;;;;;;;;5233785;27;20041;-75
2023/04/28 08:35:16;;;;;;;16.37;14.00;;;;;;;;;;5229624;28;20032;-75
2023/04/28 08:37:48;;;;;;;16.27;14.63;;;;;;;;;;5230811;28;20108;-75
2023/04/28 08:40:19;;;;;;;18.40;16.17;;;;;;;;;;5229607;28;20074;-75
2023/04/28 08:42:51;;;;;;;19.03;16.03;;;;;;;;;;5230427;28;20025;-74
2023/04/28 08:45:23;;;;;;;18.70;16.83;;;;;;;;;;5229748;28;20033;-74
2023/04/28 08:47:55;;;;;;;19.60;16.13;;;;;;;;;;5214360;28;20104;-75
2023/04/28 08:50:28;;;;;;;19.10;17.20;;;;;;;;;;5227883;28;20026;-75
2023/04/28 08:53:01;;;;;;;20.00;17.50;;;;;;;;;;5229779;28;20082;-74
2023/04/28 08:55:34;;;;;;;19.27;17.23;;;;;;;;;;5228244;28;20026;-75
2023/04/28 08:58:05;;;;;;;19.30;17.37;;;;;;;;;;5229497;28;20022;-75
2023/04/28 09:00:37;;;;;;;18.93;17.07;;;;;;;;;;5229576;28;20024;-74
2023/04/28 09:03:08;;;;;;;17.17;15.47;;;;;;;;;;5228817;28;20018;-75
2023/04/28 09:05:39;;;;;;;16.53;14.83;;;;;;;;;;5229573;28;20018;-75
2023/04/28 09:08:11;;;;;;;16.77;14.90;;;;;;;;;;5230472;28;20014;-75
2023/04/28 09:10:42;;;;;;;16.07;14.50;;;;;;;;;;5229804;28;20457;-75
2023/04/28 09:13:25;;;;;;;16.10;14.50;;;;;;;;;;5230452;28;20483;-75
2023/04/28 09:16:00;;;;;;;17.03;15.23;;;;;;;;;;5230890;28;20392;-75
2023/04/28 09:18:32;;;;;;;17.30;15.63;;;;;;;;;;5229984;28;20013;-75
2023/04/28 09:21:09;;;;;;;17.10;15.50;;;;;;;;;;5228743;28;20028;-75
2023/04/28 09:23:50;;;;;;;19.87;15.47;;;;;;;;;;5230239;28;20056;-76
2023/04/28 09:26:22;;;;;;;16.87;15.17;;;;;;;;;;5229326;28;20054;-75
2023/04/28 09:29:10;;;;;;;20.10;16.17;;;;;;;;;;5230381;28;20021;-75
2023/04/28 09:31:42;;;;;;;16.53;14.83;;;;;;;;;;5230553;28;20043;-74
2023/04/28 09:34:14;;;;;;;17.00;15.40;;;;;;;;;;5230086;28;20029;-75
2023/04/28 09:36:46;;;;;;;19.10;17.17;;;;;;;;;;5230206;28;20031;-75
2023/04/28 09:39:30;;;;;;;18.00;16.10;;;;;;;;;;5230252;28;20115;-75
2023/04/28 09:42:03;;;;;;;18.43;16.43;;;;;;;;;;5230615;28;20014;-74
2023/04/28 09:44:34;;;;;;;19.13;17.07;;;;;;;;;;5230545;28;20264;-76
2023/04/28 09:47:19;;;;;;;21.10;18.13;;;;;;;;;;5230014;28;20356;-75
2023/04/28 09:49:55;;;;;;;19.33;17.47;;;;;;;;;;5229760;28;20032;-74
2023/04/28 09:52:26;;;;;;;21.40;19.17;;;;;;;;;;5228823;28;20124;-74
2023/04/28 09:54:57;;;;;;;22.77;19.13;;;;;;;;;;5230551;28;20540;-74
2023/04/28 09:57:29;;;;;;;22.27;20.07;;;;;;;;;;5229845;28;20017;-75
2023/04/28 10:00:01;;;;;;;27.87;24.90;;;;;;;;;;5233049;28;20159;-75
2023/04/28 10:02:36;;;;;;;32.07;28.67;;;;;;;;;;5232548;28;20124;-75
2023/04/28 10:05:08;;;;;;;42.50;34.57;;;;;;;;;;5232775;28;20030;-75
2023/04/28 10:07:39;;;;;;;42.07;37.13;;;;;;;;;;5233593;28;20465;-75
2023/04/28 10:10:13;;;;;;;40.87;35.40;;;;;;;;;;5233445;28;20461;-75
2023/04/28 10:12:44;;;;;;;44.08;37.55;;;;;;;;;;5234249;28;20040;-75
2023/04/28 10:15:16;;;;;;;45.20;38.30;;;;;;;;;;5217351;28;20018;-74
2023/04/28 10:17:49;;;;;;;48.23;36.27;;;;;;;;;;5315447;27;20577;-73
2023/04/28 10:20:21;;;;;;;44.27;35.27;;;;;;;;;;5216013;28;20021;-74
2023/04/28 10:23:18;;;;;;;38.73;34.43;;;;;;;;;;5216585;28;20026;-74
2023/04/28 10:25:51;;;;;;;38.07;33.73;;;;;;;;;;5214673;28;20022;-74
2023/04/28 10:28:22;;;;;;;37.10;33.10;;;;;;;;;;5220757;28;20052;-75
2023/04/28 10:31:10;;;;;;;37.40;33.47;;;;;;;;;;5245022;28;20005;-74
2023/04/28 10:33:42;;;;;;;34.77;31.03;;;;;;;;;;5258879;27;21027;-73
2023/04/28 10:36:33;;;;;;;33.73;29.83;;;;;;;;;;5244026;27;20025;-73
2023/04/28 10:39:09;;;;;;;37.17;31.60;;;;;;;;;;5241926;27;20030;-73
2023/04/28 10:41:41;;;;;;;31.47;28.17;;;;;;;;;;5304419;27;20021;-73
2023/04/28 10:44:27;;;;;;;32.10;28.80;;;;;;;;;;5246135;28;20071;-73
2023/04/28 10:47:02;;;;;;;32.03;27.93;;;;;;;;;;5235101;28;20084;-73
2023/04/28 10:49:52;;;;;;;30.57;27.53;;;;;;;;;;5232070;28;20116;-73
2023/04/28 10:52:44;;;;;;;28.07;25.47;;;;;;;;;;5232032;28;20033;-73
2023/04/28 10:55:29;;;;;;;28.43;25.67;;;;;;;;;;5239573;27;20034;-73
2023/04/28 10:58:19;;;;;;;28.13;25.33;;;;;;;;;;5221762;28;20030;-73
2023/04/28 11:00:50;;;;;;;26.07;23.63;;;;;;;;;;5221986;28;20021;-73
2023/04/28 11:03:41;;;;;;;25.17;22.83;;;;;;;;;;5219123;28;20400;-72
2023/04/28 11:06:26;;;;;;;24.63;22.33;;;;;;;;;;5214275;28;20051;-73
2023/04/28 11:08:59;;;;;;;22.40;20.40;;;;;;;;;;5319107;27;20021;-73
2023/04/28 11:11:33;;;;;;;21.88;19.88;;;;;;;;;;5213192;28;20025;-74
2023/04/28 11:14:17;;;;;;;23.17;20.90;;;;;;;;;;5225322;28;20038;-73
2023/04/28 11:16:51;;;;;;;20.40;18.53;;;;;;;;;;5224761;28;20025;-73
2023/04/28 11:19:23;;;;;;;20.52;18.27;;;;;;;;;;5224179;28;20028;-73
2023/04/28 11:21:55;;;;;;;20.00;18.20;;;;;;;;;;5230582;28;20384;-74
2023/04/28 11:24:31;;;;;;;19.50;17.63;;;;;;;;;;5231777;28;20017;-73
2023/04/28 11:27:02;;;;;;;18.03;16.13;;;;;;;;;;5220575;28;20018;-73
2023/04/28 11:29:38;;;;;;;19.30;17.53;;;;;;;;;;5227195;28;20044;-74
2023/04/28 11:32:09;;;;;;;20.37;18.57;;;;;;;;;;5216935;28;20072;-73
2023/04/28 11:34:41;;;;;;;19.50;17.60;;;;;;;;;;5227099;28;20626;-73
2023/04/28 11:37:14;;;;;;;18.70;17.00;;;;;;;;;;5232268;28;20018;-73
2023/04/28 11:39:45;;;;;;;18.13;16.40;;;;;;;;;;5232151;28;20126;-72
2023/04/28 11:42:16;;;;;;;18.83;17.00;;;;;;;;;;5231826;28;20022;-74
2023/04/28 11:44:48;;;;;;;19.83;17.80;;;;;;;;;;5232557;28;20018;-74
2023/04/28 11:47:32;;;;;;;18.57;16.87;;;;;;;;;;5230253;28;20029;-72
2023/04/28 11:50:03;;;;;;;19.33;17.58;;;;;;;;;;5230668;28;20021;-72
2023/04/28 11:52:35;;;;;;;21.13;19.03;;;;;;;;;;5231237;28;20051;-73
2023/04/28 11:55:06;;;;;;;20.33;18.50;;;;;;;;;;5232030;28;20053;-73
2023/04/28 11:57:37;;;;;;;17.63;15.93;;;;;;;;;;5230710;28;20029;-73
2023/04/28 12:00:13;;;;;;;15.50;14.00;;;;;;;;;;5231819;28;20025;-73
2023/04/28 12:02:44;;;;;;;16.13;14.70;;;;;;;;;;5230629;28;20108;-73
2023/04/28 12:05:15;;;;;;;16.63;15.13;;;;;;;;;;5230596;28;20105;-73
2023/04/28 12:07:47;;;;;;;16.37;14.87;;;;;;;;;;5230579;28;20032;-72
2023/04/28 12:10:18;;;;;;;18.40;16.70;;;;;;;;;;5229676;28;20488;-72
2023/04/28 12:12:49;;;;;;;16.93;15.43;;;;;;;;;;5226322;28;20037;-73
2023/04/28 12:15:22;;;;;;;15.07;13.73;;;;;;;;;;5230275;28;20029;-73
2023/04/28 12:17:53;;;;;;;13.67;12.37;;;;;;;;;;5231610;28;20053;-73
2023/04/28 12:20:34;;;;;;;14.10;12.67;;;;;;;;;;5229967;28;20134;-73
2023/04/28 12:23:06;;;;;;;14.87;13.47;;;;;;;;;;5221341;28;20021;-73
2023/04/28 12:25:44;;;;;;;13.90;12.70;;;;;;;;;;5219397;28;20055;-74
2023/04/28 12:28:15;;;;;;;16.37;14.87;;;;;;;;;;5238429;27;20017;-73
2023/04/28 12:30:46;;;;;;;14.90;13.50;;;;;;;;;;5231454;28;20028;-74
2023/04/28 12:33:24;;;;;;;13.90;12.70;;;;;;;;;;5231249;28;20052;-73
2023/04/28 12:35:56;;;;;;;12.43;11.30;;;;;;;;;;5230313;28;20111;-73
2023/04/28 12:38:27;;;;;;;13.40;12.10;;;;;;;;;;5230918;28;20034;-73
2023/04/28 12:40:59;;;;;;;11.27;10.23;;;;;;;;;;5230550;28;20461;-73
2023/04/28 12:43:30;;;;;;;11.07;10.13;;;;;;;;;;5228243;28;20044;-73
2023/04/28 12:46:02;;;;;;;10.93;8.20;;;;;;;;;;5225915;28;20025;-73
2023/04/28 12:48:34;;;;;;;7.00;6.30;;;;;;;;;;5228766;28;20029;-74
2023/04/28 12:51:07;;;;;;;5.43;4.93;;;;;;;;;;5220970;28;20029;-74
2023/04/28 12:53:39;;;;;;;5.45;5.00;;;;;;;;;;5224648;28;20040;-74
2023/04/28 12:56:10;;;;;;;5.33;3.97;;;;;;;;;;5230707;28;20022;-73
2023/04/28 12:58:41;;;;;;;3.47;3.17;;;;;;;;;;5211257;28;20025;-74
2023/04/28 13:01:14;;;;;;;6.50;4.40;;;;;;;;;;5210263;28;20535;-73
2023/04/28 13:03:47;;;;;;;4.60;4.07;;;;;;;;;;5217493;28;20370;-73
2023/04/28 13:06:18;;;;;;;6.73;5.40;;;;;;;;;;5223757;28;20080;-74
2023/04/28 13:08:49;;;;;;;7.63;6.53;;;;;;;;;;5226843;28;20477;-73
2023/04/28 13:11:21;;;;;;;7.15;6.45;;;;;;;;;;5223097;28;20030;-73
2023/04/28 13:13:53;;;;;;;7.20;6.50;;;;;;;;;;5228538;28;20025;-73
2023/04/28 13:16:27;;;;;;;7.57;6.93;;;;;;;;;;5228235;28;20161;-73
2023/04/28 13:18:59;;;;;;;9.90;5.82;;;;;;;;;;5226156;28;20994;-73
2023/04/28 13:21:30;;;;;;;6.93;6.23;;;;;;;;;;5229746;28;20014;-73
2023/04/28 13:24:02;;;;;;;7.90;7.07;;;;;;;;;;5229191;28;20055;-73
2023/04/28 13:26:33;;;;;;;6.37;5.70;;;;;;;;;;5228865;28;20012;-74
2023/04/28 13:29:07;;;;;;;5.70;5.10;;;;;;;;;;5229804;28;20017;-74
2023/04/28 13:31:38;;;;;;;7.37;5.37;;;;;;;;;;5225075;28;20056;-73
2023/04/28 13:34:14;;;;;;;5.97;5.47;;;;;;;;;;5226515;28;20021;-73
2023/04/28 13:36:47;;;;;;;6.60;5.90;;;;;;;;;;5228077;28;20501;-74
2023/04/28 13:39:19;;;;;;;6.00;5.40;;;;;;;;;;5227977;28;20561;-73
2023/04/28 13:41:50;;;;;;;6.07;5.30;;;;;;;;;;5229289;28;20037;-74
2023/04/28 13:44:21;;;;;;;5.87;4.90;;;;;;;;;;5229440;28;20783;-73
2023/04/28 13:46:52;;;;;;;5.40;4.70;;;;;;;;;;5228526;28;20022;-74
2023/04/28 13:49:24;;;;;;;6.37;5.60;;;;;;;;;;5228321;28;20481;-73
2023/04/28 13:51:55;;;;;;;5.60;4.80;;;;;;;;;;5228729;28;20036;-73
2023/04/28 13:54:27;;;;;;;4.27;3.87;;;;;;;;;;5227994;28;20053;-73
2023/04/28 13:56:58;;;;;;;4.67;4.17;;;;;;;;;;5229673;28;20033;-73
2023/04/28 13:59:29;;;;;;;4.10;3.70;;;;;;;;;;5229575;28;20292;-72
2023/04/28 14:02:00;;;;;;;3.50;3.20;;;;;;;;;;5229286;28;20022;-73
2023/04/28 14:04:31;;;;;;;7.00;4.20;;;;;;;;;;5228829;28;20076;-73
2023/04/28 14:07:03;;;;;;;4.60;3.87;;;;;;;;;;5216003;28;20091;-73
2023/04/28 14:09:34;;;;;;;4.87;3.87;;;;;;;;;;5209209;28;20117;-74
2023/04/28 14:12:05;;;;;;;7.43;4.13;;;;;;;;;;5208999;28;20091;-74
2023/04/28 14:14:36;;;;;;;7.80;4.67;;;;;;;;;;5208663;28;20028;-73
2023/04/28 14:17:08;;;;;;;4.53;4.13;;;;;;;;;;5209122;28;20079;-73
2023/04/28 14:19:39;;;;;;;5.33;4.10;;;;;;;;;;5208160;28;20022;-74
2023/04/28 14:22:10;;;;;;;5.30;4.70;;;;;;;;;;5213624;28;20034;-73
2023/04/28 14:24:42;;;;;;;5.93;4.87;;;;;;;;;;5221466;28;20021;-73
2023/04/28 14:27:14;;;;;;;5.27;4.20;;;;;;;;;;5229359;28;20025;-72
2023/04/28 14:29:47;;;;;;;5.00;4.50;;;;;;;;;;5229005;28;20021;-73
2023/04/28 14:32:20;;;;;;;5.17;4.50;;;;;;;;;;5229225;28;20098;-74
2023/04/28 14:34:51;;;;;;;5.63;5.00;;;;;;;;;;5228269;28;20033;-74
2023/04/28 14:37:22;;;;;;;5.63;5.00;;;;;;;;;;5229000;28;20032;-73
2023/04/28 14:39:53;;;;;;;5.40;4.50;;;;;;;;;;5229200;28;20495;-73
2023/04/28 14:42:30;;;;;;;6.90;5.60;;;;;;;;;;5228859;28;20535;-72
2023/04/28 14:45:05;;;;;;;4.70;4.30;;;;;;;;;;5209907;28;20034;-72
2023/04/28 14:47:37;;;;;;;5.00;4.53;;;;;;;;;;5211914;28;20190;-72
2023/04/28 14:50:08;;;;;;;4.30;3.90;;;;;;;;;;5211375;28;20097;-72
2023/04/28 14:52:40;;;;;;;5.43;3.80;;;;;;;;;;5216593;28;20357;-73